Time;durP1;ratioP1;P1;durP2;ratioP2;P2;SDS_P1;SDS_P2;PMS_P1;PMS_P2;Temp;Humidity;BMP_temperature;BMP_pressure;BME280_temperature;BME280_humidity;BME280_pressure;Samples;Min_cycle;Max_cycle;Signal;HPM_P1;HPM_P2
2023/01/17 00:01:09;;;;;;;;;;;;;;;6.18;82.52;98908.88;5050559;28;20326;-92
2023/01/17 00:12:19;;;;;;;;;;;;;;;6.15;81.67;98893.19;5052863;28;19924;-93
2023/01/17 00:17:52;;;;;;;;;;;;;;;6.38;81.21;98869.38;5052792;28;20000;-93
2023/01/17 00:26:22;;;;;;;;;;;;;;;6.19;83.06;98907.13;5053025;28;20424;-93
2023/01/17 01:35:31;;;;;;;;;;;;;;;6.24;84.11;98796.19;5054862;28;19920;-92
2023/01/17 01:38:04;;;;;;;;;;;;;;;6.30;83.99;98803.09;5054820;28;19995;-93
2023/01/17 01:40:44;;;;;;;;;;;;;;;6.33;83.54;98797.81;5052086;28;19920;-91
2023/01/17 01:43:15;;;;;;;;;;;;;;;6.07;84.53;98780.69;5035270;28;20345;-92
2023/01/17 01:45:47;;;;;;;;;;;;;;;6.19;84.99;98787.50;5052254;28;20314;-92
2023/01/17 01:51:24;;;;;;;;;;;;;;;6.21;85.11;98796.22;5052913;28;19950;-92
2023/01/17 01:54:04;;;;;;;;;;;;;;;;;;;;;
2023/01/17 01:56:32;;;;;;;;;;;;;;;6.32;84.63;98785.63;5052145;28;19912;-91
2023/01/17 01:59:15;;;;;;;;;;;;;;;6.39;84.15;98783.78;5051889;28;19987;-91
2023/01/17 02:01:54;;;;;;;;;;;;;;;6.38;83.62;98800.38;5051903;28;20034;-91
2023/01/17 02:04:26;;;;;;;;;;;;;;;6.39;82.88;98817.84;5034978;28;19948;-91
2023/01/17 02:07:09;;;;;;;;;;;;;;;6.48;82.72;98801.16;5052254;28;20368;-92
2023/01/17 02:09:49;;;;;;;;;;;;;;;6.52;82.50;98795.84;5035108;28;19924;-91
2023/01/17 02:12:24;;;;;;;;;;;;;;;6.33;83.10;98803.06;5047687;28;19962;-93
2023/01/17 02:18:14;;;;;;;;;;;;;;;6.34;83.38;98807.41;5054154;28;19916;-93
2023/01/17 02:21:02;;;;;;;;;;;;;;;6.30;83.72;98813.56;5053306;28;19909;-92
2023/01/17 02:23:57;;;;;;;;;;;;;;;6.36;83.11;98826.59;5053523;28;19970;-92
2023/01/17 02:26:36;;;;;;;;;;;;;;;6.41;83.12;98830.03;5052850;28;20356;-94
2023/01/17 02:29:28;;;;;;;;;;;;;;;6.49;82.63;98811.63;5053724;28;19920;-94
2023/01/17 02:32:09;;;;;;;;;;;;;;;6.51;82.42;98807.22;5053567;28;19998;-94
2023/01/17 02:34:59;;;;;;;;;;;;;;;6.58;82.08;98807.97;5052713;28;19919;-94
2023/01/17 02:37:46;;;;;;;;;;;;;;;6.51;82.33;98807.22;5052735;28;19972;-94
2023/01/17 02:40:24;;;;;;;;;;;;;;;6.48;81.83;98803.78;5053160;28;19999;-94
2023/01/17 02:46:02;;;;;;;;;;;;;;;6.38;81.63;98795.13;5054021;28;19978;-90
2023/01/17 02:48:35;;;;;;;;;;;;;;;6.40;82.18;98786.38;5053991;28;19952;-91
2023/01/17 02:51:20;;;;;;;;;;;;;;;6.42;81.25;98778.50;5053540;28;19917;-92
2023/01/17 02:54:10;;;;;;;;;;;;;;;6.45;81.50;98775.84;5053256;28;19978;-92
2023/01/17 02:56:47;;;;;;;;;;;;;;;6.59;81.64;98784.38;5053311;28;19913;-93
2023/01/17 02:59:43;;;;;;;;;;;;;;;;;;;;;
2023/01/17 03:02:17;;;;;;;;;;;;;;;6.57;80.42;98764.34;5051354;28;19913;-92
2023/01/17 03:04:46;;;;;;;;;;;;;;;6.51;81.11;98774.91;5033926;28;20448;-93
2023/01/17 03:07:22;;;;;;;;;;;;;;;6.44;81.37;98785.47;5033100;28;19913;-91
2023/01/17 03:09:58;;;;;;;;;;;;;;;6.45;81.64;98760.13;5050859;28;19967;-91
2023/01/17 03:12:29;;;;;;;;;;;;;;;6.52;81.50;98756.53;5050431;28;20028;-92
2023/01/17 03:15:00;;;;;;;;;;;;;;;6.45;81.39;98739.16;5033478;28;19974;-91
2023/01/17 03:17:36;;;;;;;;;;;;;;;6.36;82.06;98728.81;5031982;28;19913;-91
2023/01/17 03:20:03;;;;;;;;;;;;;;;6.30;82.41;98742.84;5033320;28;19917;-90
2023/01/17 03:22:31;;;;;;;;;;;;;;;6.30;82.63;98734.97;5050201;28;20449;-90
2023/01/17 03:25:03;;;;;;;;;;;;;;;6.24;83.08;98721.97;5031770;28;20384;-90
2023/01/17 03:30:49;;;;;;;;;;;;;;;;;;;;;
2023/01/17 03:33:21;;;;;;;;;;;;;;;6.44;82.77;98724.31;5050977;28;20275;-92
2023/01/17 03:35:49;;;;;;;;;;;;;;;6.32;82.21;98717.53;5034367;28;19978;-93
2023/01/17 03:38:20;;;;;;;;;;;;;;;5.73;83.77;98699.88;5032475;28;19921;-90
2023/01/17 03:40:53;;;;;;;;;;;;;;;5.69;83.96;98705.16;5050098;28;19913;-91
2023/01/17 03:46:30;;;;;;;;;;;;;;;6.08;82.68;98709.06;5050849;28;19920;-92
2023/01/17 03:49:07;;;;;;;;;;;;;;;6.08;82.41;98716.06;5050158;28;19919;-92
2023/01/17 03:51:42;;;;;;;;;;;;;;;5.78;82.58;98706.78;5032207;28;19924;-94
2023/01/17 03:54:13;;;;;;;;;;;;;;;5.74;83.50;98703.34;5032107;28;19935;-91
2023/01/17 03:56:45;;;;;;;;;;;;;;;5.45;84.09;98695.81;5050219;28;19965;-91
2023/01/17 03:59:20;;;;;;;;;;;;;;;5.66;83.76;98702.56;5050290;28;19954;-92
2023/01/17 04:01:56;;;;;;;;;;;;;;;5.72;83.37;98707.75;5035299;28;20059;-93
2023/01/17 04:04:26;;;;;;;;;;;;;;;5.20;84.51;98701.28;5052709;28;19912;-93
2023/01/17 04:07:00;;;;;;;;;;;;;;;5.43;85.56;98703.69;5052294;28;19952;-92
2023/01/17 04:09:27;;;;;;;;;;;;;;;5.56;84.99;98692.22;5051096;28;19959;-92
2023/01/17 04:12:02;;;;;;;;;;;;;;;5.63;84.94;98682.53;5052432;28;19920;-93
2023/01/17 04:14:39;;;;;;;;;;;;;;;5.56;84.31;98693.94;5052280;28;19951;-94
2023/01/17 04:17:15;;;;;;;;;;;;;;;5.02;87.27;98704.94;5050925;28;19952;-90
2023/01/17 04:20:01;;;;;;;;;;;;;;;5.25;87.00;98712.59;5052277;28;19936;-91
2023/01/17 04:22:40;;;;;;;;;;;;;;;5.25;87.01;98701.25;5051826;28;19986;-91
2023/01/17 04:25:13;;;;;;;;;;;;;;;5.31;87.10;98699.41;5052441;28;19920;-91
2023/01/17 04:27:43;;;;;;;;;;;;;;;5.43;86.11;98685.38;5052854;28;20436;-88
2023/01/17 04:30:11;;;;;;;;;;;;;;;5.34;85.84;98695.91;5056484;28;19912;-90
2023/01/17 04:32:49;;;;;;;;;;;;;;;4.87;87.93;98692.84;5055531;28;20003;-91
2023/01/17 04:35:32;;;;;;;;;;;;;;;5.28;87.63;98690.75;5056095;28;19917;-90
2023/01/17 04:38:47;;;;;;;;;;;;;;;;;;;;;
2023/01/17 04:41:23;;;;;;;;;;;;;;;5.45;86.48;98701.91;5152755;22;20434;-88
2023/01/17 04:44:19;;;;;;;;;;;;;;;5.44;86.64;98697.56;5055632;28;20276;-89
2023/01/17 04:47:02;;;;;;;;;;;;;;;5.53;87.04;98693.97;5054690;28;19984;-90
2023/01/17 04:49:40;;;;;;;;;;;;;;;;;;;;;
2023/01/17 04:52:13;;;;;;;;;;;;;;;5.52;85.98;98700.97;5055816;28;20282;-87
2023/01/17 04:54:51;;;;;;;;;;;;;;;5.69;85.81;98690.31;5054454;28;19960;-89
2023/01/17 04:57:29;;;;;;;;;;;;;;;5.76;85.30;98688.47;5055430;28;19920;-87
2023/01/17 05:00:01;;;;;;;;;;;;;;;5.77;85.39;98661.44;5055571;28;20385;-88
2023/01/17 05:02:31;;;;;;;;;;;;;;;5.91;85.01;98656.88;5056705;28;20326;-89
2023/01/17 05:05:00;;;;;;;;;;;;;;;5.79;85.10;98645.72;5054378;28;19913;-89
2023/01/17 05:07:29;;;;;;;;;;;;;;;5.98;84.62;98662.97;5055228;28;19926;-85
2023/01/17 05:10:03;;;;;;;;;;;;;;;5.90;84.55;98678.75;5057125;28;19913;-91
2023/01/17 05:12:30;;;;;;;;;;;;;;;5.26;87.16;98674.22;5054911;28;19915;-89
2023/01/17 05:15:02;;;;;;;;;;;;;;;5.37;88.86;98678.44;5055154;28;20347;-87
2023/01/17 05:17:44;;;;;;;;;;;;;;;;;;;;;
2023/01/17 05:20:15;;;;;;;;;;;;;;;5.52;87.96;98687.03;5055193;28;19908;-84
2023/01/17 05:22:41;;;;;;;;;;;;;;;5.30;88.74;98705.56;5054904;28;19995;-85
2023/01/17 05:28:13;;;;;;;;;;;;;;;5.28;90.64;98696.84;5055022;28;19920;-88
2023/01/17 05:30:48;;;;;;;;;;;;;;;5.32;90.23;98695.94;5055809;28;19923;-93
2023/01/17 05:33:22;;;;;;;;;;;;;;;5.15;90.65;98717.00;5054679;28;19917;-93
2023/01/17 05:38:58;;;;;;;;;;;;;;;4.63;95.02;98727.84;5055571;28;20023;-92
2023/01/17 05:41:32;;;;;;;;;;;;;;;5.08;94.28;98724.91;5053109;28;19973;-92
2023/01/17 05:44:17;;;;;;;;;;;;;;;5.27;93.21;98721.28;5054814;28;20359;-88
2023/01/17 05:46:45;;;;;;;;;;;;;;;4.95;94.05;98732.84;5055652;28;19913;-94
2023/01/17 05:49:20;;;;;;;;;;;;;;;5.20;93.61;98741.38;5056393;28;19920;-94
2023/01/17 05:51:52;;;;;;;;;;;;;;;5.38;92.62;98721.16;5065506;28;20000;-96
2023/01/17 05:54:18;;;;;;;;;;;;;;;5.63;90.92;98752.31;5057573;28;19970;-93
2023/01/17 05:56:47;;;;;;;;;;;;;;;5.37;91.14;98733.34;5054559;28;19919;-90
2023/01/17 05:59:13;;;;;;;;;;;;;;;5.42;91.77;98758.63;5055111;28;20004;-92
2023/01/17 06:01:39;;;;;;;;;;;;;;;5.17;92.60;98735.28;5053694;28;19967;-90
2023/01/17 06:04:06;;;;;;;;;;;;;;;5.31;92.94;98728.19;5054486;28;20021;-93
2023/01/17 06:06:36;;;;;;;;;;;;;;;5.73;91.77;98712.06;5054258;28;19982;-96
2023/01/17 06:12:08;;;;;;;;;;;;;;;5.45;90.84;98737.66;5055726;28;19931;-89
2023/01/17 06:14:38;;;;;;;;;;;;;;;5.60;90.57;98760.22;5053091;28;19913;-91
2023/01/17 06:17:10;;;;;;;;;;;;;;;5.32;91.22;98752.63;5054294;28;19995;-92
2023/01/17 06:19:41;;;;;;;;;;;;;;;5.45;92.21;98751.59;5054568;28;19913;-92
2023/01/17 06:22:09;;;;;;;;;;;;;;;5.69;91.25;98736.56;5052798;28;20051;-91
2023/01/17 06:24:47;;;;;;;;;;;;;;;5.95;90.23;98738.00;5053441;28;20283;-92
2023/01/17 06:27:17;;;;;;;;;;;;;;;5.66;89.52;98753.16;5052714;28;19966;-93
2023/01/17 06:29:51;;;;;;;;;;;;;;;5.72;89.88;98775.78;5053064;28;20393;-93
2023/01/17 06:32:20;;;;;;;;;;;;;;;5.59;90.00;98748.00;5044841;28;19999;-93
2023/01/17 06:34:54;;;;;;;;;;;;;;;5.49;90.10;98789.94;5035025;28;19917;-93
2023/01/17 06:37:25;;;;;;;;;;;;;;;5.31;91.16;98749.09;5050729;28;19909;-92
2023/01/17 06:39:54;;;;;;;;;;;;;;;5.28;91.45;98777.03;5053921;28;19945;-93
2023/01/17 06:42:28;;;;;;;;;;;;;;;5.69;90.98;98779.28;5052222;28;19927;-92
2023/01/17 06:45:02;;;;;;;;;;;;;;;5.69;89.67;98750.50;5068971;28;19971;-94
2023/01/17 06:47:41;;;;;;;;;;;;;;;5.66;90.03;98774.09;5055700;28;19917;-96
2023/01/17 06:50:16;;;;;;;;;;;;;;;5.97;89.27;98765.09;5052497;28;19923;-93
2023/01/17 06:55:51;;;;;;;;;;;;;;;5.95;88.21;98761.56;5053981;28;19915;-92
2023/01/17 06:58:24;;;;;;;;;;;;;;;5.90;88.04;98738.94;5052491;28;20000;-93
2023/01/17 07:01:04;;;;;;;;;;;;;;;6.05;87.46;98711.72;5053660;28;20375;-93
2023/01/17 07:03:38;;;;;;;;;;;;;;;6.28;87.35;98747.25;5053670;28;19927;-93
2023/01/17 07:06:27;;;;;;;;;;;;;;;;;;;;;
2023/01/17 07:09:02;;;;;;;;;;;;;;;6.20;87.82;98731.63;5053903;28;19919;-93
2023/01/17 07:11:38;;;;;;;;;;;;;;;6.28;86.83;98723.66;5052396;28;20378;-93
2023/01/17 07:14:14;;;;;;;;;;;;;;;6.28;86.48;98740.25;5052765;28;19912;-92
2023/01/17 07:16:47;;;;;;;;;;;;;;;6.60;86.27;98752.06;5052124;28;19912;-91
2023/01/17 07:19:25;;;;;;;;;;;;;;;6.62;85.44;98749.41;5052863;28;19917;-90
2023/01/17 07:22:01;;;;;;;;;;;;;;;6.68;85.05;98748.47;5053036;28;19913;-90
2023/01/17 07:24:36;;;;;;;;;;;;;;;6.75;84.63;98729.13;5051905;28;19999;-90
2023/01/17 07:27:12;;;;;;;;;;;;;;;6.86;84.34;98728.97;5053335;28;19971;-91
2023/01/17 07:29:51;;;;;;;;;;;;;;;6.82;83.53;98738.63;5053398;28;19919;-91
2023/01/17 07:32:25;;;;;;;;;;;;;;;6.67;84.72;98749.34;5052729;28;20443;-92
2023/01/17 07:35:00;;;;;;;;;;;;;;;6.85;84.32;98758.72;5051978;28;19920;-92
2023/01/17 07:37:28;;;;;;;;;;;;;;;7.07;84.01;98773.22;5051827;28;19912;-92
2023/01/17 07:40:11;;;;;;;;;;;;;;;;;;;;;
2023/01/17 07:42:47;;;;;;;;;;;;;;;7.00;83.20;98766.34;5054437;28;19923;-92
2023/01/17 07:45:14;;;;;;;;;;;;;;;6.91;84.51;98754.22;5053237;28;20359;-94
2023/01/17 07:47:50;;;;;;;;;;;;;;;6.99;83.32;98739.25;5053179;28;19962;-93
2023/01/17 07:50:35;;;;;;;;;;;;;;;6.97;83.78;98737.56;5053232;28;19917;-91
2023/01/17 07:53:04;;;;;;;;;;;;;;;6.87;84.11;98749.91;5052565;28;19913;-92
2023/01/17 07:55:43;;;;;;;;;;;;;;;7.05;83.59;98755.78;5052126;28;19912;-94
2023/01/17 07:58:19;;;;;;;;;;;;;;;6.79;83.62;98751.78;5050821;28;19920;-93
2023/01/17 08:00:49;;;;;;;;;;;;;;;7.10;83.81;98751.31;5054170;28;19971;-95
2023/01/17 08:03:25;;;;;;;;;;;;;;;7.04;82.76;98751.41;5051041;28;19913;-92
2023/01/17 08:06:01;;;;;;;;;;;;;;;6.94;83.11;98745.47;5035737;28;19984;-96
2023/01/17 08:08:37;;;;;;;;;;;;;;;6.93;83.98;98757.69;5053772;28;19913;-93
2023/01/17 08:11:14;;;;;;;;;;;;;;;7.31;82.57;98755.38;5054973;28;19917;-92
2023/01/17 08:13:58;;;;;;;;;;;;;;;7.24;82.40;98746.72;5052813;28;20302;-95
2023/01/17 08:16:38;;;;;;;;;;;;;;;7.26;81.69;98750.19;5051304;28;20015;-93
2023/01/17 08:19:09;;;;;;;;;;;;;;;7.34;82.30;98763.19;5052783;28;19963;-94
2023/01/17 08:21:47;;;;;;;;;;;;;;;7.47;81.66;98762.06;5052433;28;19978;-93
2023/01/17 08:24:15;;;;;;;;;;;;;;;7.46;82.22;98757.72;5052371;28;19948;-91
2023/01/17 08:26:58;;;;;;;;;;;;;;;;;;;;;
2023/01/17 08:29:31;;;;;;;;;;;;;;;7.17;83.75;98776.56;5053442;28;19913;-94
2023/01/17 08:32:13;;;;;;;;;;;;;;;7.32;83.23;98768.47;5051936;28;19915;-93
2023/01/17 08:37:55;;;;;;;;;;;;;;;7.12;83.43;98749.53;5056895;28;20042;-92
2023/01/17 08:40:35;;;;;;;;;;;;;;;6.93;84.65;98757.69;5062150;28;19924;-95
2023/01/17 08:46:09;;;;;;;;;;;;;;;7.48;82.21;98755.94;5053170;28;20004;-95
2023/01/17 08:48:54;;;;;;;;;;;;;;;7.40;82.72;98763.09;5053952;28;19923;-96
2023/01/17 08:51:39;;;;;;;;;;;;;;;7.31;82.99;98745.72;5049908;28;19920;-94
2023/01/17 08:54:21;;;;;;;;;;;;;;;;;;;;;
2023/01/17 08:56:54;;;;;;;;;;;;;;;7.34;82.13;98736.94;5052999;28;19912;-94
2023/01/17 08:59:30;;;;;;;;;;;;;;;7.13;84.05;98741.63;5052231;28;19921;-94
2023/01/17 09:01:58;;;;;;;;;;;;;;;7.32;83.92;98772.81;5053134;28;19912;-95
2023/01/17 09:04:29;;;;;;;;;;;;;;;7.39;83.48;98766.59;5054701;28;19978;-94
2023/01/17 09:07:06;;;;;;;;;;;;;;;7.58;81.23;98758.41;5052061;28;19913;-94
2023/01/17 09:09:45;;;;;;;;;;;;;;;7.80;80.89;98745.72;5051550;28;19916;-94
2023/01/17 09:12:21;;;;;;;;;;;;;;;7.84;81.55;98740.41;5052075;28;20470;-95
2023/01/17 09:14:59;;;;;;;;;;;;;;;7.68;80.85;98726.69;5053097;28;20371;-92
2023/01/17 09:17:32;;;;;;;;;;;;;;;7.64;82.60;98735.50;5055675;28;20019;-94
2023/01/17 09:20:23;;;;;;;;;;;;;;;7.86;81.52;98735.13;5054796;28;19913;-93
2023/01/17 09:23:00;;;;;;;;;;;;;;;7.59;82.40;98720.78;5053894;28;19951;-92
2023/01/17 09:25:43;;;;;;;;;;;;;;;7.53;83.24;98746.22;5055460;28;19982;-93
2023/01/17 09:28:19;;;;;;;;;;;;;;;7.46;83.46;98738.47;5054423;28;19912;-93
2023/01/17 09:30:49;;;;;;;;;;;;;;;7.52;83.13;98735.75;5055356;28;19913;-92
2023/01/17 09:33:23;;;;;;;;;;;;;;;7.43;84.12;98751.66;5054452;28;19923;-92
2023/01/17 09:35:58;;;;;;;;;;;;;;;7.82;83.29;98746.59;5055277;28;19920;-94
2023/01/17 09:38:30;;;;;;;;;;;;;;;7.32;83.31;98744.84;5059611;28;19971;-96
2023/01/17 09:41:06;;;;;;;;;;;;;;;7.26;84.54;98751.94;5056970;28;19923;-92
2023/01/17 09:43:42;;;;;;;;;;;;;;;7.35;85.11;98751.78;5060128;28;19976;-96
2023/01/17 09:46:39;;;;;;;;;;;;;;;7.21;85.55;98765.13;5057311;28;19913;-92
2023/01/17 09:49:12;;;;;;;;;;;;;;;7.61;84.87;98763.59;5055728;28;19913;-96
2023/01/17 09:51:47;;;;;;;;;;;;;;;7.88;83.74;98746.47;5054847;28;19920;-93
2023/01/17 09:54:24;;;;;;;;;;;;;;;7.65;84.24;98745.13;5055310;28;19970;-95
2023/01/17 09:57:14;;;;;;;;;;;;;;;8.18;83.27;98762.50;5059234;28;19944;-95
2023/01/17 10:00:08;;;;;;;;;;;;;;;8.03;81.91;98733.03;5051208;28;20497;-95
2023/01/17 10:02:55;;;;;;;;;;;;;;;7.61;84.78;98711.94;5056334;28;19913;-96
2023/01/17 10:05:51;;;;;;;;;;;;;;;8.20;83.54;98760.72;5056528;28;20004;-92
2023/01/17 10:08:40;;;;;;;;;;;;;;;8.47;81.59;98719.88;5053853;28;20036;-95
2023/01/17 10:11:29;;;;;;;;;;;;;;;7.97;83.67;98706.91;5054904;28;19913;-93
2023/01/17 10:13:54;;;;;;;;;;;;;;;8.35;82.87;98734.13;5052845;28;19917;-92
2023/01/17 10:16:39;;;;;;;;;;;;;;;8.45;81.38;98694.53;5054939;28;19913;-92
2023/01/17 10:28:49;;;;;;;;;;;;;;;8.59;79.11;98688.06;5074756;22;20357;-96
2023/01/17 10:31:52;;;;;;;;;;;;;;;9.06;79.27;98718.53;5052375;28;19974;-92
2023/01/17 10:37:44;;;;;;;;;;;;;;;9.26;78.45;98718.03;5048028;28;19923;-96
2023/01/17 10:43:21;;;;;;;;;;;;;;;9.00;77.95;98682.72;5061396;28;19916;-90
2023/01/17 10:46:37;;;;;;;;;;;;;;;9.22;77.82;98682.19;5068780;28;20351;-95
2023/01/17 10:49:20;;;;;;;;;;;;;;;9.28;77.79;98663.59;4997998;28;19924;-94
2023/01/17 10:52:08;;;;;;;;;;;;;;;9.35;77.65;98688.88;5053958;28;19917;-91
2023/01/17 10:54:57;;;;;;;;;;;;;;;9.39;76.84;98695.78;5054758;28;19920;-93
2023/01/17 10:57:26;;;;;;;;;;;;;;;9.46;77.73;98670.16;5053885;28;19920;-96
2023/01/17 10:59:59;;;;;;;;;;;;;;;9.32;76.63;98675.78;5055696;28;19919;-93
2023/01/17 11:02:49;;;;;;;;;;;;;;;9.68;76.24;98680.97;5064072;28;19992;-96
2023/01/17 11:05:27;;;;;;;;;;;;;;;9.79;75.02;98696.47;5060945;28;19913;-96
2023/01/17 11:08:22;;;;;;;;;;;;;;;10.16;72.62;98672.59;5062100;28;20378;-96
2023/01/17 11:11:15;;;;;;;;;;;;;;;;;;;;;
2023/01/17 11:14:02;;;;;;;;;;;;;;;;;;;;;
2023/01/17 11:19:27;;;;;;;;;;;;;;;10.41;72.52;98692.97;5070735;22;19928;-94
2023/01/17 11:22:18;;;;;;;;;;;;;;;10.01;74.38;98668.63;5053387;28;20393;-93
2023/01/17 11:24:58;;;;;;;;;;;;;;;10.20;74.57;98666.28;5054565;28;19920;-96
2023/01/17 11:27:38;;;;;;;;;;;;;;;10.37;73.76;98678.16;5053301;28;19912;-93
2023/01/17 11:30:29;;;;;;;;;;;;;;;10.31;74.47;98660.69;5051926;28;19971;-95
2023/01/17 11:33:07;;;;;;;;;;;;;;;10.60;72.97;98672.16;5053736;28;19909;-96
2023/01/17 11:35:59;;;;;;;;;;;;;;;10.77;73.04;98657.56;5054957;28;19901;-96
2023/01/17 11:38:41;;;;;;;;;;;;;;;;;;;;;
2023/01/17 11:41:26;;;;;;;;;;;;;;;10.87;71.35;98633.47;5054587;28;20268;-96
2023/01/17 11:44:23;;;;;;;;;;;;;;;10.58;72.80;98623.84;5054741;28;19912;-96
2023/01/17 11:47:09;;;;;;;;;;;;;;;10.53;73.58;98618.75;5054821;28;19912;-96
2023/01/17 11:49:46;;;;;;;;;;;;;;;10.68;73.11;98641.13;5070468;28;19917;-96
2023/01/17 11:55:56;;;;;;;;;;;;;;;10.85;73.80;98606.28;5087782;22;19921;-95
2023/01/17 11:59:10;;;;;;;;;;;;;;;10.33;76.72;98584.25;5069469;28;19992;-94
2023/01/17 12:05:32;;;;;;;;;;;;;;;11.07;75.02;98595.00;5296241;22;19962;-96
2023/01/17 12:08:01;;;;;;;;;;;;;;;11.31;73.70;98605.59;5133661;22;19922;-94
2023/01/17 12:10:51;;;;;;;;;;;;;;;11.26;72.41;98589.91;5257116;22;19909;-96
2023/01/17 12:16:47;;;;;;;;;;;;;;;11.36;72.05;98611.59;4994648;28;19928;-96
2023/01/17 12:25:28;;;;;;;;;;;;;;;11.21;72.51;98592.72;5938853;22;19934;31
2023/01/17 12:28:11;;;;;;;;;;;;;;;11.31;72.18;98580.09;5147098;22;19927;-96
2023/01/17 12:31:10;;;;;;;;;;;;;;;;;;;;;
2023/01/17 12:34:04;;;;;;;;;;;;;;;11.49;71.94;98575.03;5416653;22;20015;-96
2023/01/17 12:36:53;;;;;;;;;;;;;;;11.38;72.30;98570.16;5038753;28;19905;-96
2023/01/17 12:39:49;;;;;;;;;;;;;;;11.43;73.27;98589.31;5024094;28;19908;-95
2023/01/17 12:42:34;;;;;;;;;;;;;;;11.38;72.39;98594.75;5018397;28;20427;-96
2023/01/17 12:45:22;;;;;;;;;;;;;;;10.83;74.79;98597.56;5020035;28;20000;-96
2023/01/17 12:48:42;;;;;;;;;;;;;;;;;;;;;
2023/01/17 12:54:15;;;;;;;;;;;;;;;11.09;72.95;98574.69;5526990;22;19923;-95
2023/01/17 12:57:15;;;;;;;;;;;;;;;10.99;73.06;98578.56;5005976;28;19926;-92
2023/01/17 12:59:58;;;;;;;;;;;;;;;11.29;73.04;98574.84;4986676;28;20300;-96
2023/01/17 13:02:54;;;;;;;;;;;;;;;11.32;72.31;98568.59;5002665;28;20450;-96
2023/01/17 13:05:36;;;;;;;;;;;;;;;10.89;75.76;98541.94;4999584;28;19953;-93
2023/01/17 13:10:46;;;;;;;;;;;;;;;11.00;75.65;98557.41;5535359;22;19922;-95
2023/01/17 13:13:22;;;;;;;;;;;;;;;11.09;75.03;98557.09;5024377;28;19909;-96
2023/01/17 13:16:22;;;;;;;;;;;;;;;10.91;76.39;98549.81;5108828;22;19926;-96
2023/01/17 13:19:19;;;;;;;;;;;;;;;10.65;78.16;98559.47;5350949;22;19928;-95
2023/01/17 13:22:26;;;;;;;;;;;;;;;10.72;77.99;98571.53;5036191;28;19913;-96
2023/01/17 13:25:35;;;;;;;;;;;;;;;10.74;77.77;98571.50;5015703;28;20306;-95
2023/01/17 13:57:50;;;;;;;;;;;;;;;;;;;;;
2023/01/17 14:03:59;;;;;;;;;;;;;;;11.36;75.13;98554.38;5284365;22;19969;-96
2023/01/17 14:09:34;;;;;;;;;;;;;;;10.99;77.62;98573.28;5245349;22;20023;-96
2023/01/17 14:12:20;;;;;;;;;;;;;;;10.98;77.11;98561.00;5044791;28;19956;-96
2023/01/17 14:18:47;;;;;;;;;;;;;;;11.08;77.74;98559.78;5172809;22;19927;-96
2023/01/17 14:21:30;;;;;;;;;;;;;;;11.13;76.75;98556.97;5077841;28;19959;-95
2023/01/17 14:24:12;;;;;;;;;;;;;;;11.01;76.79;98559.09;5077952;28;19922;-96
2023/01/17 14:26:50;;;;;;;;;;;;;;;10.87;78.00;98561.38;5075130;28;19917;-96
2023/01/17 14:29:46;;;;;;;;;;;;;;;11.02;77.50;98541.53;5079238;28;19916;-96
2023/01/17 14:32:30;;;;;;;;;;;;;;;11.13;76.99;98546.41;5081406;28;19908;-96
2023/01/17 14:35:25;;;;;;;;;;;;;;;11.13;76.90;98552.56;5082276;28;19913;-93
2023/01/17 14:40:58;;;;;;;;;;;;;;;10.75;78.94;98560.00;5075354;28;20381;-91
2023/01/17 14:43:27;;;;;;;;;;;;;;;11.10;77.27;98556.16;5076342;28;19943;-94
2023/01/17 14:48:40;;;;;;;;;;;;;;;11.29;75.76;98547.56;5276233;22;19920;-96
2023/01/17 14:51:23;;;;;;;;;;;;;;;11.20;75.45;98529.44;5073570;28;19947;-96
2023/01/17 14:53:56;;;;;;;;;;;;;;;11.11;75.70;98533.28;5075848;28;19909;-96
2023/01/17 14:56:24;;;;;;;;;;;;;;;11.16;75.65;98559.50;5075148;28;19912;-94
2023/01/17 14:59:20;;;;;;;;;;;;;;;;;;;;;
2023/01/17 15:08:19;;;;;;;;;;;;;;;10.78;77.54;98552.00;5093528;22;19944;-96
2023/01/17 15:10:54;;;;;;;;;;;;;;;10.81;77.37;98551.88;5084045;28;19928;-95
2023/01/17 15:16:46;;;;;;;;;;;;;;;10.66;77.91;98552.41;5086367;28;19916;-96
2023/01/17 15:19:15;;;;;;;;;;;;;;;10.60;77.61;98555.25;5088140;28;19904;-96
2023/01/17 15:24:48;;;;;;;;;;;;;;;10.46;78.07;98540.75;5452661;22;19927;-95
2023/01/17 15:30:23;;;;;;;;;;;;;;;10.23;78.70;98557.28;5077264;28;20377;-96
2023/01/17 15:32:52;;;;;;;;;;;;;;;10.31;78.04;98557.03;5073434;28;19913;-96
2023/01/17 15:35:19;;;;;;;;;;;;;;;10.35;78.05;98543.75;5074896;28;20398;-96
2023/01/17 15:40:49;;;;;;;;;;;;;;;10.19;78.95;98548.63;5078908;28;20386;-92
2023/01/17 15:43:18;;;;;;;;;;;;;;;10.08;79.53;98548.09;5089319;28;19912;-91
2023/01/17 15:45:54;;;;;;;;;;;;;;;10.04;79.84;98543.84;5075503;28;19912;-96
2023/01/17 15:48:39;;;;;;;;;;;;;;;9.98;80.46;98544.88;5076450;28;19970;-96
2023/01/17 15:51:09;;;;;;;;;;;;;;;9.73;81.76;98557.94;5077376;28;20007;-95
2023/01/17 15:53:43;;;;;;;;;;;;;;;9.75;81.76;98553.47;5145747;22;19956;-96
2023/01/17 15:56:30;;;;;;;;;;;;;;;9.44;83.61;98566.69;5071720;28;19913;-96
2023/01/17 16:08:04;;;;;;;;;;;;;;;9.22;86.48;98567.28;5066722;28;19919;-92
2023/01/17 16:14:09;;;;;;;;;;;;;;;8.92;87.97;98593.47;5037112;28;20024;-95
2023/01/17 16:17:04;;;;;;;;;;;;;;;9.17;86.89;98594.63;5038538;28;19980;-96
2023/01/17 16:19:50;;;;;;;;;;;;;;;9.19;86.89;98577.91;5035280;28;20012;-95
2023/01/17 16:22:21;;;;;;;;;;;;;;;9.35;86.08;98566.94;5043998;28;19917;-95
2023/01/17 16:24:54;;;;;;;;;;;;;;;9.63;84.80;98559.09;5038128;28;19913;-96
2023/01/17 16:27:23;;;;;;;;;;;;;;;9.55;84.22;98548.81;5036825;28;19920;-93
2023/01/17 16:33:07;;;;;;;;;;;;;;;9.41;84.55;98578.16;5169258;22;20012;-94
2023/01/17 16:38:19;;;;;;;;;;;;;;;9.60;84.05;98572.38;5153021;22;19925;-94
2023/01/17 16:43:59;;;;;;;;;;;;;;;9.58;82.82;98579.44;5087678;22;19952;-95
2023/01/17 16:46:37;;;;;;;;;;;;;;;9.45;83.83;98587.69;5089556;22;19921;-95
2023/01/17 16:49:09;;;;;;;;;;;;;;;9.63;83.24;98590.72;5035722;28;19921;-96
2023/01/17 16:51:40;;;;;;;;;;;;;;;9.78;82.30;98585.00;5036504;28;19983;-90
2023/01/17 16:54:08;;;;;;;;;;;;;;;9.79;81.98;98581.47;5038141;28;19913;-95
2023/01/17 16:59:41;;;;;;;;;;;;;;;9.83;80.78;98582.22;5036018;28;19916;-91
2023/01/17 17:02:08;;;;;;;;;;;;;;;9.67;81.39;98577.41;5035228;28;19936;-94
2023/01/17 17:04:45;;;;;;;;;;;;;;;9.40;83.22;98575.56;5034392;28;19913;-91
2023/01/17 17:10:16;;;;;;;;;;;;;;;9.13;84.92;98585.94;5036553;28;19931;-96
2023/01/17 17:12:44;;;;;;;;;;;;;;;9.32;84.85;98583.66;5032844;28;20011;-96
2023/01/17 17:15:14;;;;;;;;;;;;;;;9.27;84.12;98567.16;5033875;28;19917;-93
2023/01/17 17:20:43;;;;;;;;;;;;;;;9.49;83.47;98541.94;5039872;28;19967;-93
2023/01/17 17:23:09;;;;;;;;;;;;;;;9.42;83.08;98536.88;5034335;28;19917;-93
2023/01/17 17:25:37;;;;;;;;;;;;;;;9.60;83.09;98535.50;5035952;28;20274;-94
2023/01/17 17:31:11;;;;;;;;;;;;;;;9.05;84.13;98540.53;5036078;28;19916;-86
2023/01/17 17:36:54;;;;;;;;;;;;;;;9.29;83.37;98541.66;5034403;28;19967;-94
2023/01/17 17:39:35;;;;;;;;;;;;;;;8.97;84.82;98538.13;5035280;28;19913;-87
2023/01/17 17:42:14;;;;;;;;;;;;;;;;;;;;;
2023/01/17 17:44:53;;;;;;;;;;;;;;;9.32;82.92;98531.03;5035180;28;19919;-93
2023/01/17 17:50:40;;;;;;;;;;;;;;;9.10;83.88;98534.25;5021849;28;19967;-91
2023/01/17 17:53:15;;;;;;;;;;;;;;;9.35;82.75;98530.09;5048790;28;20288;-92
2023/01/17 17:55:46;;;;;;;;;;;;;;;9.40;81.65;98521.13;5035211;28;19913;-91
2023/01/17 17:58:24;;;;;;;;;;;;;;;9.24;82.34;98504.94;5034571;28;20006;-92
2023/01/17 18:00:58;;;;;;;;;;;;;;;9.42;82.15;98489.50;5029275;28;20390;-94
2023/01/17 18:03:34;;;;;;;;;;;;;;;;;;;;;
2023/01/17 18:06:11;;;;;;;;;;;;;;;8.88;84.53;98509.44;5036100;28;19935;-95
2023/01/17 18:08:43;;;;;;;;;;;;;;;8.48;86.39;98499.97;5031011;28;19920;-93
2023/01/17 18:11:17;;;;;;;;;;;;;;;8.89;86.22;98498.03;5035178;28;19983;-93
2023/01/17 18:13:57;;;;;;;;;;;;;;;8.71;87.66;98495.00;5033861;28;20004;-92
2023/01/17 18:16:29;;;;;;;;;;;;;;;9.06;86.55;98481.78;5037011;28;20295;-94
2023/01/17 18:22:07;;;;;;;;;;;;;;;9.44;83.74;98485.09;5040264;28;20298;-96
2023/01/17 18:27:43;;;;;;;;;;;;;;;9.73;82.10;98475.41;5035285;28;20381;-94
2023/01/17 18:30:11;;;;;;;;;;;;;;;9.68;81.37;98465.03;5042452;28;19959;-94
2023/01/17 18:32:46;;;;;;;;;;;;;;;9.72;81.32;98471.94;5042631;28;19912;-96
2023/01/17 18:38:23;;;;;;;;;;;;;;;9.53;81.26;98469.00;5038538;28;19951;-92
2023/01/17 18:40:58;;;;;;;;;;;;;;;9.51;81.44;98462.91;5039159;28;20028;-96
2023/01/17 18:43:39;;;;;;;;;;;;;;;9.37;82.74;98455.44;5037213;28;19913;-95